Terminal Aerodrome Forecast
Issued by NWS Mt. Holly, NJ

Home | Current Version | Previous Version | Text Only | Print | Product List | Glossary On
Versions: 1 2 3 4 5 6 7 8 9 10 11 12 13 14 15 16 17 18
995
FTUS41 KPHI 311128
TAFACY
TAF
KACY 311128Z 3112/0112 00000KT P6SM FEW001
     FM311300 19007KT P6SM SCT250
     FM311800 16008KT P6SM FEW050
     FM010500 19004KT P6SM BKN150
     FM010800 19003KT 6SM -SHRA BR OVC060=

USA.gov is the U.S. government's official web portal to all federal, state and local government web resources and services.